Terminal Aerodrome Forecast
Issued by NWS

Home | Current Version | Previous Version | Text Only | Print | Product List | Glossary On
Versions: 1 2 3 4 5 6 7 8 9 10 11 12 13 14 15 16 17 18 19 20 21 22 23 24 25 26 27 28 29 30 31 32 33 34 35 36 37 38 39 40 41 42 43 44
000
FTUS43 KDMX 311120
TAFMCW
TAF
KMCW 311120Z 3112/0112 15005KT 2SM BR SCT002 BKN035
      TEMPO 3112/3114 1SM BR SCT001 BKN008
     FM311400 18004KT 5SM BR SCT070
     FM311500 18014G21KT P6SM SCT080
     FM010000 17012KT P6SM VCSH SCT080 BKN120
     FM010300 16008KT P6SM VCTS SCT020 BKN050CB
     FM011000 20006KT P6SM SCT025 BKN050=

USA.gov is the U.S. government's official web portal to all federal, state and local government web resources and services.